SBOSBO CVG / KCVG
Speedbird OnlineSpeedbird Online CVG / KCVG

Cincinnati Northern Kentucky International Airport
17:49 19.8°C

Location Cincinnati, United States
Latitude: 39.0488014221
Longitude: -84.6678009033
Local Time 17:49 on 29 May 2024
UTC -4 hours (America/New_York)
Currency Ā£1 equals USD 1.28
METAR KCVG 292052Z 35005KT 10SM FEW041 SCT050 BKN085 19/12 A3010 RMK AO2 SLP188 MDT CU SW-W 60001 T01890122 58004
TAF KCVG 292104Z 2921/3024 30010KT P6SM VCSH SCT035 FM292300 32010KT P6SM SCT035 BKN050 FM300200 VRB03KT P6SM FEW050 SCT250 FM301300 03006KT P6SM FEW250
Weather As Of 29 May 2024 17:48
Description Broken clouds
Wind 9 km/h from North (350°)
Cloud Cover 75%
Precipitation Rain: none, Snow: none
Sunrise 06:16
Sunset 20:56
NOTAM 30 active NOTAM
Rotations During the last 90 days there were
54 flights from LHR
53 flights to LHR
Lounges Escape Lounge- The CenturionĀ® Studio Partner, Main Terminal
Web Wikipedia
Codes IATA: CVG
ICAO: KCVG
Altitude 273 Meter / 896 Feet
Distance 6,397 KM / 3,975 Miles
from London.
Runways
RunwayLength (m)Surface
093658Partial
18C3353Partial
18L3048Concrete
18R2438Concrete
273658Partial
36C3353Partial
36L2438Concrete
36R3048Concrete
Radio
TypeDescriptionFrequency
APPAPP119.7
ATISATIS134.375
CLDCLNC DEL127.175
DEPDEP126.65
GNDGND121.3
RDOLOUISVILLE RDO117.3
TWRTWR118.3
UNICUNICOM122.95
Live ATC



Support Speedbird Online

© 2017-2024 Speedbird Online